createdAt,value
2019-03-13T00:02:07.927Z,0.80
2019-03-13T00:04:37.681Z,0.80
2019-03-13T00:07:07.479Z,0.80
2019-03-13T00:09:37.098Z,0.80
2019-03-13T00:12:06.892Z,0.90
2019-03-13T00:14:36.569Z,0.90
2019-03-13T00:17:06.182Z,0.80
2019-03-13T00:19:35.771Z,0.70
2019-03-13T00:22:09.706Z,0.60
2019-03-13T00:24:39.386Z,0.40
2019-03-13T00:27:09.044Z,0.20
2019-03-13T00:29:38.737Z,0.10
2019-03-13T00:32:10.030Z,0.10
2019-03-13T00:34:39.669Z,0.20
2019-03-13T00:37:09.323Z,0.20
2019-03-13T00:39:38.979Z,0.30
2019-03-13T00:42:08.665Z,0.30
2019-03-13T00:44:38.269Z,0.40
2019-03-13T00:47:07.886Z,0.40
2019-03-13T00:49:37.502Z,0.30
2019-03-13T00:52:07.088Z,0.20
2019-03-13T00:54:36.737Z,0.10
2019-03-13T00:57:06.398Z,0.10
2019-03-13T00:59:35.994Z,0.10
2019-03-13T01:02:13.003Z,0.10
2019-03-13T01:04:44.275Z,0.20
2019-03-13T01:07:13.930Z,0.20
2019-03-13T01:09:43.596Z,0.20
2019-03-13T01:12:13.285Z,0.20
2019-03-13T01:14:42.913Z,0.10
2019-03-13T01:17:12.591Z,0.10
2019-03-13T01:19:42.210Z,0.10
2019-03-13T01:22:11.973Z,0.20
2019-03-13T01:24:41.556Z,0.20
2019-03-13T01:27:11.189Z,0.30
2019-03-13T01:29:40.785Z,0.20
2019-03-13T01:32:18.219Z,0.30
2019-03-13T01:34:49.446Z,0.40
2019-03-13T01:37:19.038Z,0.50
2019-03-13T01:39:48.698Z,0.40
2019-03-13T01:42:18.379Z,0.30
2019-03-13T01:44:47.999Z,0.30
2019-03-13T01:47:17.592Z,0.30
2019-03-13T01:49:47.209Z,0.30
2019-03-13T01:52:16.827Z,0.30
2019-03-13T01:54:46.421Z,0.40
2019-03-13T01:57:16.034Z,0.40
2019-03-13T01:59:45.642Z,0.30
2019-03-13T02:02:15.239Z,0.30
2019-03-13T02:04:44.847Z,0.30
2019-03-13T02:07:14.467Z,0.20
2019-03-13T02:09:44.082Z,0.20
2019-03-13T02:12:13.696Z,0.30
2019-03-13T02:14:43.286Z,0.50
2019-03-13T02:17:12.868Z,0.60
2019-03-13T02:19:42.490Z,0.70
2019-03-13T02:22:12.078Z,0.70
2019-03-13T02:24:41.693Z,0.80
2019-03-13T02:27:11.309Z,0.90
2019-03-13T02:29:40.928Z,0.90
2019-03-13T02:32:10.515Z,0.80
2019-03-13T02:34:40.133Z,0.70
2019-03-13T02:37:09.720Z,0.70
2019-03-13T02:39:39.333Z,0.60
2019-03-13T02:42:08.997Z,0.70
2019-03-13T02:44:38.603Z,0.80
2019-03-13T02:47:08.294Z,0.80
2019-03-13T02:49:37.878Z,0.80
2019-03-13T02:52:07.563Z,0.80
2019-03-13T02:54:37.173Z,0.80
2019-03-13T02:57:06.787Z,0.80
2019-03-13T02:59:36.370Z,0.80
2019-03-13T03:02:22.530Z,0.90
2019-03-13T03:04:52.125Z,1.10
2019-03-13T03:07:21.743Z,1.20
2019-03-13T03:09:51.354Z,1.20
2019-03-13T03:12:21.093Z,1.10
2019-03-13T03:15:02.582Z,1.00
2019-03-13T03:17:32.268Z,1.00
2019-03-13T03:20:01.985Z,1.00
2019-03-13T03:22:31.601Z,1.00
2019-03-13T03:25:01.254Z,1.00
2019-03-13T03:27:30.835Z,1.10
2019-03-13T03:30:00.703Z,1.10
2019-03-13T03:32:30.423Z,1.10
2019-03-13T03:35:00.006Z,1.10
2019-03-13T03:37:29.621Z,1.20
2019-03-13T03:39:59.220Z,1.20
2019-03-13T03:42:29.245Z,1.20
2019-03-13T03:44:58.851Z,1.30
2019-03-13T03:47:28.441Z,1.30
2019-03-13T03:49:58.058Z,1.30
2019-03-13T03:52:27.644Z,1.30
2019-03-13T03:54:57.250Z,1.40
2019-03-13T03:57:26.866Z,1.40
2019-03-13T03:59:56.557Z,1.20
2019-03-13T04:02:26.238Z,1.20
2019-03-13T04:04:55.923Z,1.20
2019-03-13T04:07:25.773Z,1.20
2019-03-13T04:09:55.459Z,1.30
2019-03-13T04:12:25.051Z,1.40
2019-03-13T04:14:54.660Z,1.40
2019-03-13T04:17:24.277Z,1.30
2019-03-13T04:19:53.869Z,1.30
2019-03-13T04:22:23.514Z,1.30
2019-03-13T04:24:54.327Z,1.30
2019-03-13T04:27:24.018Z,1.40
2019-03-13T04:29:53.679Z,1.40
2019-03-13T04:32:23.277Z,1.50
2019-03-13T04:34:52.882Z,1.60
2019-03-13T04:37:22.584Z,1.60
2019-03-13T04:39:52.173Z,1.70
2019-03-13T04:42:21.790Z,1.70
2019-03-13T04:44:51.410Z,1.80
2019-03-13T04:47:21.022Z,1.80
2019-03-13T04:49:50.614Z,1.80
2019-03-13T04:52:20.230Z,2.00
2019-03-13T04:54:49.838Z,2.10
2019-03-13T04:57:19.424Z,2.10
2019-03-13T04:59:49.042Z,2.20
2019-03-13T05:02:18.704Z,2.20
2019-03-13T05:04:48.289Z,2.10
2019-03-13T05:07:17.894Z,2.00
2019-03-13T05:09:47.512Z,1.90
2019-03-13T05:12:17.100Z,2.00
2019-03-13T05:14:46.725Z,2.10
2019-03-13T05:17:16.307Z,2.10
2019-03-13T05:19:45.889Z,2.10
2019-03-13T05:22:15.512Z,2.10
2019-03-13T05:24:45.129Z,1.90
2019-03-13T05:27:14.724Z,1.90
2019-03-13T05:29:44.343Z,1.80
2019-03-13T05:32:13.935Z,1.90
2019-03-13T05:34:43.593Z,1.90
2019-03-13T05:37:13.203Z,1.90
2019-03-13T05:39:42.793Z,1.90
2019-03-13T05:42:12.474Z,2.00
2019-03-13T05:44:42.154Z,2.10
2019-03-13T05:47:11.764Z,2.20
2019-03-13T05:49:41.379Z,2.10
2019-03-13T05:52:11.000Z,2.20
2019-03-13T05:54:40.638Z,2.30
2019-03-13T05:57:10.234Z,2.40
2019-03-13T05:59:39.820Z,2.50
2019-03-13T06:02:09.573Z,2.50
2019-03-13T06:04:39.260Z,2.60
2019-03-13T06:07:08.875Z,2.70
2019-03-13T06:09:38.456Z,2.70
2019-03-13T06:12:08.042Z,2.70
2019-03-13T06:14:37.673Z,2.70
2019-03-13T06:17:07.246Z,2.80
2019-03-13T06:19:36.855Z,2.70
2019-03-13T06:22:06.479Z,2.80
2019-03-13T06:24:36.093Z,2.80
2019-03-13T06:27:05.677Z,2.90
2019-03-13T06:29:35.294Z,2.90
2019-03-13T06:32:04.909Z,3.00
2019-03-13T06:34:34.501Z,3.10
2019-03-13T06:37:04.116Z,3.20
2019-03-13T06:39:33.798Z,3.30
2019-03-13T06:42:03.484Z,3.40
2019-03-13T06:44:33.102Z,3.40
2019-03-13T06:47:02.715Z,3.50
2019-03-13T06:49:32.561Z,3.60
2019-03-13T06:52:02.238Z,3.70
2019-03-13T06:54:32.160Z,3.80
2019-03-13T06:57:01.762Z,3.90
2019-03-13T06:59:32.987Z,4.00
2019-03-13T07:02:04.254Z,4.00
2019-03-13T07:04:51.067Z,4.00
2019-03-13T07:07:22.323Z,4.20
2019-03-13T07:09:59.515Z,4.30
2019-03-13T07:12:28.915Z,4.30
2019-03-13T07:15:02.814Z,4.20
2019-03-13T07:17:39.677Z,4.20
2019-03-13T07:20:18.806Z,4.00
2019-03-13T07:22:50.037Z,4.20
2019-03-13T07:25:37.296Z,4.30
2019-03-13T07:28:14.311Z,4.50
2019-03-13T07:30:50.969Z,4.60
2019-03-13T07:33:31.933Z,4.80
2019-03-13T07:36:06.200Z,4.90
2019-03-13T07:38:43.295Z,4.90
2019-03-13T07:41:23.636Z,5.00
2019-03-13T07:44:09.848Z,5.00
2019-03-13T07:46:53.298Z,5.20
2019-03-13T07:49:27.153Z,5.30
2019-03-13T07:52:04.355Z,5.30
2019-03-13T07:54:53.821Z,5.40
2019-03-13T07:57:30.904Z,5.50
2019-03-13T08:00:02.170Z,5.50
2019-03-13T08:02:42.663Z,5.50
2019-03-13T08:05:14.844Z,5.50
2019-03-13T08:07:55.247Z,5.50
2019-03-13T08:10:24.608Z,5.50
2019-03-13T08:13:11.009Z,5.50
2019-03-13T08:15:42.293Z,5.60
2019-03-13T08:18:29.955Z,5.60
2019-03-13T08:20:59.350Z,5.50
2019-03-13T08:23:36.271Z,5.50
2019-03-13T08:26:07.662Z,5.50
2019-03-13T08:28:48.040Z,5.60
2019-03-13T08:31:19.342Z,5.60
2019-03-13T08:34:03.656Z,5.60
2019-03-13T08:36:46.760Z,5.60
2019-03-13T08:39:20.870Z,5.60
2019-03-13T08:42:08.321Z,5.60
2019-03-13T08:44:40.272Z,5.70
2019-03-13T08:47:11.500Z,5.70
2019-03-13T08:49:54.945Z,5.80
2019-03-13T08:52:26.183Z,5.80
2019-03-13T08:55:00.603Z,5.90
2019-03-13T08:57:34.482Z,6.00
2019-03-13T09:00:10.131Z,6.00
2019-03-13T09:02:41.366Z,6.10
2019-03-13T09:05:13.572Z,5.90
2019-03-13T09:07:44.799Z,5.70
2019-03-13T09:10:22.569Z,5.60
2019-03-13T09:13:01.374Z,5.60
2019-03-13T09:15:42.133Z,5.60
2019-03-13T09:18:13.458Z,5.70
2019-03-13T09:21:00.862Z,5.40
2019-03-13T09:23:41.069Z,5.30
2019-03-13T09:26:28.325Z,5.30
2019-03-13T09:28:59.552Z,5.50
2019-03-13T09:31:33.467Z,5.90
2019-03-13T09:34:04.706Z,6.10
2019-03-13T09:36:36.967Z,6.20
2019-03-13T09:39:09.285Z,6.30
2019-03-13T09:41:43.344Z,6.40
2019-03-13T09:44:26.617Z,6.50
2019-03-13T09:47:00.455Z,6.50
2019-03-13T09:49:40.371Z,6.50
2019-03-13T09:52:11.595Z,6.50
2019-03-13T09:54:48.294Z,6.30
2019-03-13T09:57:17.687Z,6.20
2019-03-13T09:59:47.043Z,6.20
2019-03-13T10:02:26.868Z,6.20
2019-03-13T10:04:56.264Z,6.20
2019-03-13T10:07:37.653Z,6.20
2019-03-13T10:10:25.181Z,6.30
2019-03-13T10:12:56.404Z,6.30
2019-03-13T10:15:27.663Z,6.30
2019-03-13T10:18:04.594Z,6.30
2019-03-13T10:20:35.850Z,6.20
2019-03-13T10:23:23.060Z,6.10
2019-03-13T10:25:57.001Z,6.10
2019-03-13T10:28:28.413Z,6.10
2019-03-13T10:31:14.275Z,6.00
2019-03-13T10:33:45.528Z,5.90
2019-03-13T10:36:20.535Z,6.00
2019-03-13T10:38:49.923Z,5.90
2019-03-13T10:41:21.926Z,6.00
2019-03-13T10:43:53.340Z,6.10
2019-03-13T10:46:22.731Z,6.10
2019-03-13T10:48:53.986Z,6.20
2019-03-13T10:51:34.075Z,6.30
2019-03-13T10:54:05.403Z,6.40
2019-03-13T10:56:45.533Z,6.40
2019-03-13T10:59:22.448Z,6.50
2019-03-13T11:01:53.781Z,6.60
2019-03-13T11:04:42.776Z,6.60
2019-03-13T11:07:16.648Z,6.60
2019-03-13T11:09:46.010Z,6.60
2019-03-13T11:12:35.208Z,6.70
2019-03-13T11:15:09.739Z,6.80
2019-03-13T11:17:52.653Z,6.80
2019-03-13T11:20:24.631Z,6.90
2019-03-13T11:23:01.349Z,6.90
2019-03-13T11:25:35.201Z,6.90
2019-03-13T11:28:15.427Z,6.90
2019-03-13T11:30:46.723Z,6.90
2019-03-13T11:33:16.172Z,6.80
2019-03-13T11:35:50.217Z,6.80
2019-03-13T11:38:24.434Z,6.70
2019-03-13T11:41:10.568Z,6.60
2019-03-13T11:43:41.895Z,6.50
2019-03-13T11:46:28.688Z,6.60
2019-03-13T11:48:59.943Z,6.60
2019-03-13T11:51:49.142Z,6.50
2019-03-13T11:54:23.045Z,6.60
2019-03-13T11:56:52.414Z,6.60
2019-03-13T11:59:26.152Z,6.50
2019-03-13T12:02:00.308Z,6.50
2019-03-13T12:04:34.299Z,6.50
2019-03-13T12:07:08.313Z,6.60
2019-03-13T12:09:41.423Z,6.70
2019-03-13T12:12:24.902Z,6.70
2019-03-13T12:15:08.055Z,6.70
2019-03-13T12:17:41.774Z,6.70
2019-03-13T12:20:15.938Z,6.80
2019-03-13T12:22:52.680Z,6.80
2019-03-13T12:25:26.392Z,6.90
2019-03-13T12:27:57.617Z,6.90
2019-03-13T12:30:37.672Z,7.00
2019-03-13T12:33:08.970Z,7.10
2019-03-13T12:35:55.894Z,7.30
2019-03-13T12:42:07.440Z,7.30
2019-03-13T12:44:47.865Z,7.30
2019-03-13T12:47:28.259Z,7.40
2019-03-13T12:50:15.502Z,7.40
2019-03-13T12:52:53.486Z,7.50
2019-03-13T12:55:24.812Z,7.60
2019-03-13T12:57:56.041Z,7.70
2019-03-13T13:00:42.256Z,7.70
2019-03-13T13:03:22.493Z,7.80
2019-03-13T13:05:53.716Z,7.80
2019-03-13T13:08:27.630Z,7.90
2019-03-13T13:11:04.648Z,7.90
2019-03-13T13:13:51.736Z,7.80
2019-03-13T13:16:26.789Z,7.80
2019-03-13T13:18:56.446Z,7.80
2019-03-13T13:21:26.053Z,7.80
2019-03-13T13:23:55.711Z,7.80
2019-03-13T13:26:25.487Z,7.80
2019-03-13T13:28:55.088Z,7.70
2019-03-13T13:31:24.682Z,7.70
2019-03-13T13:33:54.368Z,7.60
2019-03-13T13:36:26.641Z,7.70
2019-03-13T13:38:55.258Z,7.80
2019-03-13T13:41:24.875Z,7.70
2019-03-13T13:43:54.471Z,7.60
2019-03-13T13:46:27.190Z,7.50
2019-03-13T13:48:56.773Z,7.30
2019-03-13T13:51:26.448Z,7.30
2019-03-13T13:53:56.081Z,7.30
2019-03-13T13:56:25.726Z,7.20
2019-03-13T13:58:55.338Z,7.10
2019-03-13T14:01:25.064Z,7.20
2019-03-13T14:03:54.748Z,7.20
2019-03-13T14:06:24.480Z,7.10
2019-03-13T14:08:54.157Z,7.10
2019-03-13T14:11:23.777Z,7.10
2019-03-13T14:13:53.363Z,7.00
2019-03-13T14:16:23.037Z,6.90
2019-03-13T14:18:52.716Z,6.80
2019-03-13T14:21:22.302Z,6.70
2019-03-13T14:23:51.985Z,6.70
2019-03-13T14:26:21.580Z,6.60
2019-03-13T14:28:51.266Z,6.60
2019-03-13T14:31:20.916Z,6.50
2019-03-13T14:33:50.798Z,6.50
2019-03-13T14:36:22.045Z,6.50
2019-03-13T14:38:51.656Z,6.50
2019-03-13T14:41:21.308Z,6.60
2019-03-13T14:43:50.922Z,6.60
2019-03-13T14:46:20.510Z,6.60
2019-03-13T14:48:50.125Z,6.60
2019-03-13T14:51:19.747Z,6.70
2019-03-13T14:53:49.327Z,6.80
2019-03-13T14:56:18.944Z,6.80
2019-03-13T14:58:48.528Z,6.80
2019-03-13T15:01:18.138Z,6.80
2019-03-13T15:03:47.725Z,6.80
2019-03-13T15:06:17.334Z,6.80
2019-03-13T15:08:46.922Z,6.80
2019-03-13T15:11:16.541Z,6.70
2019-03-13T15:13:46.143Z,6.70
2019-03-13T15:16:15.730Z,6.70
2019-03-13T15:18:45.340Z,6.80
2019-03-13T15:21:14.924Z,6.80
2019-03-13T15:23:44.631Z,6.80
2019-03-13T15:26:14.285Z,6.90
2019-03-13T15:28:43.875Z,7.00
2019-03-13T15:31:13.485Z,7.00
2019-03-13T15:33:43.108Z,7.10
2019-03-13T15:36:12.690Z,6.90
2019-03-13T15:38:42.276Z,6.90
2019-03-13T15:41:11.899Z,6.90
2019-03-13T15:43:41.505Z,6.80
2019-03-13T15:46:11.098Z,6.80
2019-03-13T15:48:40.700Z,6.80
2019-03-13T15:51:10.290Z,6.70
2019-03-13T15:53:39.905Z,6.60
2019-03-13T15:56:09.520Z,6.60
2019-03-13T15:58:39.148Z,6.70
2019-03-13T16:01:09.201Z,6.70
2019-03-13T16:03:38.833Z,6.60
2019-03-13T16:06:08.448Z,6.60
2019-03-13T16:08:38.072Z,6.60
2019-03-13T16:11:07.696Z,6.60
2019-03-13T16:13:37.285Z,6.60
2019-03-13T16:16:07.036Z,6.70
2019-03-13T16:18:36.632Z,6.70
2019-03-13T16:21:06.382Z,6.70
2019-03-13T16:23:35.970Z,6.80
2019-03-13T16:26:05.656Z,6.70
2019-03-13T16:28:35.241Z,6.70
2019-03-13T16:31:05.033Z,6.70
2019-03-13T16:33:34.650Z,6.70
2019-03-13T16:36:04.301Z,6.70
2019-03-13T16:38:33.914Z,6.60
2019-03-13T16:41:03.540Z,6.60
2019-03-13T16:43:33.119Z,6.60
2019-03-13T16:46:02.765Z,6.60
2019-03-13T16:48:32.379Z,6.60
2019-03-13T16:51:01.972Z,6.60
2019-03-13T16:53:31.579Z,6.50
2019-03-13T16:56:01.163Z,6.40
2019-03-13T16:58:30.769Z,6.40
2019-03-13T17:01:00.382Z,6.40
2019-03-13T17:03:29.972Z,6.40
2019-03-13T17:05:59.581Z,6.40
2019-03-13T17:08:29.195Z,6.40
2019-03-13T17:10:58.806Z,6.30
2019-03-13T17:13:28.391Z,6.20
2019-03-13T17:15:58.037Z,6.20
2019-03-13T17:18:27.713Z,6.30
2019-03-13T17:20:57.478Z,6.20
2019-03-13T17:23:27.088Z,6.20
2019-03-13T17:25:56.765Z,6.10
2019-03-13T17:28:26.354Z,6.10
2019-03-13T17:30:55.964Z,6.10
2019-03-13T17:33:25.642Z,6.10
2019-03-13T17:35:55.229Z,6.20
2019-03-13T17:38:24.854Z,6.20
2019-03-13T17:40:54.441Z,6.10
2019-03-13T17:43:24.031Z,6.10
2019-03-13T17:45:53.703Z,6.10
2019-03-13T17:48:23.337Z,6.20
2019-03-13T17:50:52.926Z,6.20
2019-03-13T17:53:22.541Z,6.20
2019-03-13T17:55:52.187Z,6.20
2019-03-13T17:58:22.815Z,6.20
2019-03-13T18:00:54.248Z,6.20
2019-03-13T18:03:25.197Z,6.20
2019-03-13T18:05:54.810Z,6.10
2019-03-13T18:08:24.395Z,6.10
2019-03-13T18:10:54.003Z,6.00
2019-03-13T18:13:23.626Z,6.10
2019-03-13T18:15:53.239Z,6.10
2019-03-13T18:18:22.825Z,6.10
2019-03-13T18:20:52.509Z,6.10
2019-03-13T18:23:22.097Z,6.10
2019-03-13T18:25:51.696Z,6.10
2019-03-13T18:28:21.315Z,6.00
2019-03-13T18:30:50.935Z,6.00
2019-03-13T18:33:20.629Z,6.00
2019-03-13T18:35:50.333Z,6.00
2019-03-13T18:38:19.909Z,6.00
2019-03-13T18:40:49.505Z,6.00
2019-03-13T18:43:19.193Z,6.00
2019-03-13T18:45:48.779Z,5.90
2019-03-13T18:48:18.399Z,5.90
2019-03-13T18:50:48.091Z,5.90
2019-03-13T18:53:17.702Z,5.90
2019-03-13T18:55:47.323Z,5.90
2019-03-13T18:58:16.906Z,5.90
2019-03-13T19:00:46.599Z,5.90
2019-03-13T19:03:16.336Z,5.90
2019-03-13T19:05:45.947Z,5.90
2019-03-13T19:08:15.533Z,5.90
2019-03-13T19:10:45.124Z,5.90
2019-03-13T19:13:14.767Z,5.90
2019-03-13T19:15:44.358Z,5.80
2019-03-13T19:18:13.956Z,5.80
2019-03-13T19:20:43.639Z,5.70
2019-03-13T19:23:14.390Z,5.70
2019-03-13T19:25:44.238Z,5.70
2019-03-13T19:28:13.866Z,5.70
2019-03-13T19:30:43.462Z,5.70
2019-03-13T19:33:13.151Z,5.70
2019-03-13T19:35:42.770Z,5.80
2019-03-13T19:38:16.809Z,5.70
2019-03-13T19:40:46.419Z,5.60
2019-03-13T19:43:16.005Z,5.60
2019-03-13T19:45:49.222Z,5.60
2019-03-13T19:48:18.814Z,5.70
2019-03-13T19:50:48.512Z,5.70
2019-03-13T19:53:18.171Z,5.70
2019-03-13T19:55:47.791Z,5.80
2019-03-13T19:58:17.530Z,5.70
2019-03-13T20:00:47.275Z,5.60
2019-03-13T20:03:18.591Z,5.70
2019-03-13T20:05:48.247Z,5.70
2019-03-13T20:08:17.928Z,5.70
2019-03-13T20:10:47.626Z,5.70
2019-03-13T20:13:17.270Z,5.70
2019-03-13T20:15:46.859Z,5.80
2019-03-13T20:18:16.557Z,5.80
2019-03-13T20:20:46.299Z,5.80
2019-03-13T20:23:17.800Z,5.70
2019-03-13T20:25:47.566Z,5.80
2019-03-13T20:28:17.356Z,5.80
2019-03-13T20:30:47.004Z,5.90
2019-03-13T20:33:16.621Z,5.90
2019-03-13T20:35:46.359Z,5.80
2019-03-13T20:38:16.052Z,5.80
2019-03-13T20:40:45.818Z,5.80
2019-03-13T20:43:15.817Z,5.90
2019-03-13T20:45:45.509Z,5.90
2019-03-13T20:48:15.195Z,5.90
2019-03-13T20:50:44.885Z,5.90
2019-03-13T20:53:14.572Z,5.90
2019-03-13T20:55:44.182Z,5.80
2019-03-13T20:58:13.809Z,5.80
2019-03-13T21:00:43.466Z,5.80
2019-03-13T21:03:13.055Z,5.80
2019-03-13T21:05:42.681Z,5.80
2019-03-13T21:08:12.298Z,5.80
2019-03-13T21:10:41.936Z,5.80
2019-03-13T21:13:11.532Z,5.90
2019-03-13T21:15:43.571Z,5.80
2019-03-13T21:18:12.458Z,5.80
2019-03-13T21:20:42.121Z,5.80
2019-03-13T21:23:11.740Z,5.70
2019-03-13T21:25:41.361Z,5.80
2019-03-13T21:28:11.055Z,5.80
2019-03-13T21:30:40.715Z,5.80
2019-03-13T21:33:10.310Z,5.80
2019-03-13T21:35:39.925Z,5.80
2019-03-13T21:38:09.542Z,5.80
2019-03-13T21:40:39.162Z,5.80
2019-03-13T21:43:08.788Z,5.80
2019-03-13T21:45:41.378Z,5.80
2019-03-13T21:48:09.726Z,5.80
2019-03-13T21:50:39.360Z,5.70
2019-03-13T21:53:09.217Z,5.60
2019-03-13T21:55:38.816Z,5.60
2019-03-13T21:58:08.408Z,5.50
2019-03-13T22:00:38.098Z,5.50
2019-03-13T22:03:07.788Z,5.40
2019-03-13T22:05:37.412Z,5.40
2019-03-13T22:08:07.075Z,5.50
2019-03-13T22:10:36.892Z,5.50
2019-03-13T22:13:06.639Z,5.50
2019-03-13T22:15:36.377Z,5.50
2019-03-13T22:18:05.987Z,5.50
2019-03-13T22:20:35.614Z,5.60
2019-03-13T22:23:05.388Z,5.70
2019-03-13T22:25:34.992Z,5.70
2019-03-13T22:28:04.641Z,5.70
2019-03-13T22:30:34.308Z,5.60
2019-03-13T22:33:04.006Z,5.60
2019-03-13T22:35:33.609Z,5.70
2019-03-13T22:38:03.223Z,5.70
2019-03-13T22:40:32.817Z,5.70
2019-03-13T22:43:02.440Z,5.60
2019-03-13T22:45:32.035Z,5.60
2019-03-13T22:48:01.648Z,5.60
2019-03-13T22:50:31.336Z,5.50
2019-03-13T22:53:00.959Z,5.40
2019-03-13T22:55:30.570Z,5.40
2019-03-13T22:58:01.516Z,5.30
2019-03-13T23:00:50.273Z,5.30
2019-03-13T23:03:21.747Z,5.20
2019-03-13T23:05:51.473Z,5.10
2019-03-13T23:08:21.233Z,5.00
2019-03-13T23:10:51.076Z,4.80
2019-03-13T23:13:20.785Z,4.90
2019-03-13T23:15:50.451Z,4.90
2019-03-13T23:18:20.107Z,4.90
2019-03-13T23:20:49.727Z,4.90
2019-03-13T23:23:19.415Z,4.80
2019-03-13T23:25:49.016Z,4.80
2019-03-13T23:28:18.634Z,4.80
2019-03-13T23:30:48.303Z,4.70
2019-03-13T23:33:17.928Z,4.80
2019-03-13T23:35:47.515Z,4.90
2019-03-13T23:38:17.204Z,4.90
2019-03-13T23:40:46.863Z,4.80
2019-03-13T23:43:16.458Z,4.90
2019-03-13T23:45:46.093Z,4.80
2019-03-13T23:48:15.758Z,4.90
2019-03-13T23:50:45.343Z,4.90
2019-03-13T23:53:14.978Z,4.80
2019-03-13T23:55:44.571Z,4.80
2019-03-13T23:58:14.235Z,4.90
